Pagina principale
METAR-TAF:

METAR-TAF

Aeroporti :

Aeroporto di Rabat-Salé

Rabat, Marocco

latitudine: 34-03N, longitudine: 006-46W, altezza: 84 m

Osservazione

Il bollettino è stato emesso 21 minuti fa, alle 02:30 UTC
Vento 4 kt da est/sud-est
Temperature 9°C
Umidità 100%
Pressione 1020 hPa
Visibilità: 8000 m

METAR: GMME 160230Z 12004KT 8000 NSC 09/09 Q1020 NOSIG

Ora: 03:51 (02:51 UTC)

Previsione

Il bollettino è stato emesso 3 ore e 51 minuti fa, alle 23:00 UTC
Previsione valida dal 16 alle 00 UTC al 17 alle 06 UTC
Vento 2 kt da direzioni variabili
Visibilità: 8000 m
Nubi sparse ad un'altezza di 1300 ft
Nubi sparse ad un'altezza di 1600 ft
Temporaneamente
dal 16 alle 12 UTC al 16 alle 18 UTC
Vento 10 kt da nord

TAF: GMME 152300Z 1600/1706 VRB02KT 8000 SCT013 SCT016 TEMPO 1612/1618 36010KT

Osservazioni e previsioni meteorologiche di più di 4000 aeroporti (messaggi METAR e TAF).

Le stazioni disponibili sono rappresentate dai dischi gialli e rossi sulla carta.

Puntare il mouse per vedere il nome della stazione.

Clicca sopra per visualizzare le osservazioni e previsioni meteorologiche.

Per cambiare la mappa : fare clic sui pulsanti verdi con una croce nera per ingrandire, il pulsante verde con un trattino per diminuire, o sulla freccia verde per le mappe adiacenti.


METAR-TAF: